createdAt,value
2018-07-27T00:03:01.275Z,25.70
2018-07-27T00:08:05.176Z,25.70
2018-07-27T00:13:08.934Z,25.60
2018-07-27T00:45:32.856Z,25.10
2018-07-27T00:50:36.676Z,25.10
2018-07-27T00:55:41.029Z,25.00
2018-07-27T01:00:44.991Z,24.90
2018-07-27T01:05:49.216Z,24.90
2018-07-27T01:10:53.161Z,24.80
2018-07-27T01:15:57.149Z,24.80
2018-07-27T01:21:00.992Z,24.70
2018-07-27T01:26:05.238Z,24.60
2018-07-27T01:31:09.331Z,24.60
2018-07-27T01:36:13.275Z,24.50
2018-07-27T01:41:17.263Z,24.50
2018-07-27T01:46:21.211Z,24.40
2018-07-27T01:51:25.179Z,24.30
2018-07-27T01:56:29.038Z,24.30
2018-07-27T02:01:33.139Z,24.20
2018-07-27T02:06:37.124Z,24.10
2018-07-27T02:11:40.986Z,24.10
2018-07-27T02:16:44.927Z,24.00
2018-07-27T02:32:44.403Z,23.70
2018-07-27T02:37:48.392Z,23.60
2018-07-27T02:42:52.297Z,23.60
2018-07-27T02:47:56.122Z,23.50
2018-07-27T02:52:59.985Z,23.50
2018-07-27T03:03:35.655Z,23.40
2018-07-27T03:08:54.029Z,23.30
2018-07-27T03:13:57.900Z,23.20
2018-07-27T03:24:30.250Z,23.10
2018-07-27T03:29:56.173Z,23.10
2018-07-27T03:35:00.103Z,23.00
2018-07-27T03:40:04.877Z,22.90
2018-07-27T03:45:09.044Z,22.90
2018-07-27T03:50:12.935Z,22.80
2018-07-27T03:55:16.774Z,22.80
2018-07-27T04:00:20.930Z,22.80
2018-07-27T04:05:25.148Z,22.70
2018-07-27T04:10:29.054Z,22.70
2018-07-27T04:15:33.159Z,22.70
2018-07-27T04:20:37.070Z,22.60
2018-07-27T04:25:40.900Z,22.60
2018-07-27T04:30:44.834Z,22.60
2018-07-27T04:35:48.681Z,22.60
2018-07-27T04:40:52.735Z,22.60
2018-07-27T04:45:56.381Z,22.60
2018-07-27T04:51:00.212Z,22.60
2018-07-27T04:56:04.002Z,22.60
2018-07-27T05:01:07.704Z,22.60
2018-07-27T05:06:11.546Z,22.60
2018-07-27T05:11:15.411Z,22.70
2018-07-27T05:16:19.285Z,22.80
2018-07-27T05:21:23.230Z,22.80
2018-07-27T05:26:27.323Z,22.90
2018-07-27T05:31:31.188Z,22.90
2018-07-27T05:36:35.160Z,22.90
2018-07-27T05:41:39.468Z,23.00
2018-07-27T05:46:43.551Z,22.90
2018-07-27T05:51:47.706Z,23.00
2018-07-27T05:56:51.533Z,23.00
2018-07-27T06:01:55.259Z,23.00
2018-07-27T06:06:59.180Z,23.10
2018-07-27T06:12:02.946Z,23.20
2018-07-27T06:17:07.237Z,23.30
2018-07-27T06:22:11.067Z,23.40
2018-07-27T06:27:15.010Z,23.50
2018-07-27T06:32:19.354Z,23.60
2018-07-27T06:37:23.323Z,23.70
2018-07-27T06:42:27.112Z,23.80
2018-07-27T06:47:30.968Z,23.90
2018-07-27T06:52:35.040Z,24.00
2018-07-27T06:57:39.011Z,24.10
2018-07-27T07:02:42.722Z,24.30
2018-07-27T07:13:26.946Z,24.60
2018-07-27T07:40:39.491Z,25.40
2018-07-27T07:45:43.202Z,25.60
2018-07-27T07:50:47.443Z,25.80
2018-07-27T07:55:51.341Z,25.90
2018-07-27T08:00:55.329Z,26.10
2018-07-27T08:05:59.535Z,26.30
2018-07-27T08:11:03.935Z,26.50
2018-07-27T08:16:08.038Z,26.70
2018-07-27T08:21:11.962Z,26.90
2018-07-27T08:27:01.923Z,27.00
2018-07-27T08:32:05.934Z,27.20
2018-07-27T08:37:10.031Z,27.40
2018-07-27T08:42:14.075Z,27.60
2018-07-27T08:47:17.821Z,27.70
2018-07-27T08:52:21.562Z,27.90
2018-07-27T08:57:25.406Z,28.10
2018-07-27T09:02:29.469Z,28.20
2018-07-27T09:07:33.270Z,28.30
2018-07-27T09:12:37.116Z,28.40
2018-07-27T09:17:41.211Z,28.60
2018-07-27T09:22:45.049Z,28.80
2018-07-27T09:27:48.898Z,29.00
2018-07-27T09:32:52.747Z,29.10
2018-07-27T09:37:56.574Z,29.30
2018-07-27T09:43:00.491Z,29.40
2018-07-27T09:48:04.223Z,29.60
2018-07-27T09:53:08.519Z,29.70
2018-07-27T10:03:48.186Z,30.00
2018-07-27T10:08:51.891Z,30.20
2018-07-27T10:13:55.749Z,30.30
2018-07-27T10:57:15.730Z,31.70
2018-07-27T11:02:19.583Z,31.90
2018-07-27T11:07:23.845Z,32.00
2018-07-27T11:12:27.662Z,32.20
2018-07-27T11:23:06.918Z,32.50
2018-07-27T11:28:11.007Z,32.70
2018-07-27T11:33:15.031Z,32.80
2018-07-27T11:38:18.980Z,33.00
2018-07-27T11:43:29.224Z,33.20
2018-07-27T11:48:33.105Z,33.40
2018-07-27T11:53:36.985Z,33.60
2018-07-27T12:09:36.338Z,34.10
2018-07-27T12:14:40.277Z,34.30
2018-07-27T12:19:43.860Z,34.40
2018-07-27T12:24:47.661Z,34.50
2018-07-27T12:29:51.579Z,34.70
2018-07-27T12:34:55.472Z,34.80
2018-07-27T12:39:59.491Z,34.90
2018-07-27T12:45:03.527Z,35.00
2018-07-27T12:50:07.403Z,35.10
2018-07-27T12:55:11.199Z,35.30
2018-07-27T13:10:21.975Z,35.60
2018-07-27T13:15:25.821Z,35.70
2018-07-27T13:20:40.704Z,35.80
2018-07-27T13:30:58.073Z,36.00
2018-07-27T13:36:02.202Z,36.10
2018-07-27T13:41:06.071Z,36.20
2018-07-27T13:46:10.184Z,36.30
2018-07-27T13:51:14.138Z,36.40
2018-07-27T13:56:18.527Z,36.50
2018-07-27T14:01:22.324Z,36.50
2018-07-27T14:06:26.317Z,36.50
2018-07-27T14:11:30.213Z,36.50
2018-07-27T14:16:34.414Z,36.60
2018-07-27T14:21:38.237Z,36.70
2018-07-27T14:26:42.444Z,36.70
2018-07-27T14:31:46.522Z,36.80
2018-07-27T14:36:50.285Z,36.90
2018-07-27T14:41:54.022Z,36.90
2018-07-27T14:46:57.961Z,36.90
2018-07-27T14:52:01.558Z,36.90
2018-07-27T14:57:05.994Z,37.00
2018-07-27T15:02:09.699Z,37.00
2018-07-27T15:24:00.520Z,37.10
2018-07-27T15:29:04.816Z,37.10
2018-07-27T15:34:08.822Z,37.10
2018-07-27T16:23:22.252Z,36.70
2018-07-27T16:28:26.256Z,36.60
2018-07-27T16:33:29.974Z,36.50
2018-07-27T16:38:33.719Z,36.40
2018-07-27T16:43:37.778Z,36.30
2018-07-27T16:59:54.254Z,36.00
2018-07-27T17:04:58.112Z,35.90
2018-07-27T17:10:01.777Z,35.80
2018-07-27T17:15:05.693Z,35.60
2018-07-27T17:20:09.938Z,35.50
2018-07-27T17:25:13.825Z,35.40
2018-07-27T17:30:17.863Z,35.30
2018-07-27T17:35:21.512Z,35.20
2018-07-27T17:40:25.256Z,35.00
2018-07-27T17:45:29.377Z,34.90
2018-07-27T17:50:33.195Z,34.70
2018-07-27T17:55:37.085Z,34.60
2018-07-27T18:00:41.091Z,34.40
2018-07-27T18:05:44.977Z,34.20
2018-07-27T18:10:48.720Z,34.00
2018-07-27T18:15:52.325Z,33.90
2018-07-27T18:20:56.286Z,33.70
2018-07-27T18:26:00.368Z,33.60
2018-07-27T18:31:04.372Z,33.40
2018-07-27T18:36:08.223Z,33.30
2018-07-27T18:41:12.228Z,33.10
2018-07-27T18:46:16.066Z,33.00
2018-07-27T18:51:20.005Z,32.80
2018-07-27T18:56:23.920Z,32.50
2018-07-27T19:01:27.994Z,32.20
2018-07-27T19:06:31.960Z,31.90
2018-07-27T19:11:35.812Z,31.60
2018-07-27T19:16:39.938Z,31.40
2018-07-27T19:21:44.073Z,31.10
2018-07-27T19:26:47.977Z,30.90
2018-07-27T19:31:52.138Z,30.80
2018-07-27T19:36:56.363Z,30.60
2018-07-27T19:42:00.219Z,30.40
2018-07-27T19:47:04.413Z,30.30
2018-07-27T19:52:08.538Z,30.20
2018-07-27T19:57:12.487Z,30.00
2018-07-27T20:02:16.469Z,29.90
2018-07-27T20:07:20.298Z,29.80
2018-07-27T20:12:24.478Z,29.70
2018-07-27T20:17:28.476Z,29.60
2018-07-27T20:22:33.482Z,29.50
2018-07-27T20:27:37.223Z,29.40
2018-07-27T20:32:41.199Z,29.30
2018-07-27T20:37:45.140Z,29.20
2018-07-27T20:42:48.768Z,29.10
2018-07-27T20:47:52.602Z,29.00
2018-07-27T20:52:56.444Z,28.90
2018-07-27T20:58:00.890Z,28.80
2018-07-27T21:03:05.112Z,28.60
2018-07-27T21:08:08.817Z,28.50
2018-07-27T21:13:12.755Z,28.40
2018-07-27T21:23:56.784Z,28.20
2018-07-27T21:29:00.564Z,28.10
2018-07-27T21:34:04.343Z,28.00
2018-07-27T21:44:54.559Z,27.70
2018-07-27T21:49:58.234Z,27.60
2018-07-27T21:55:01.813Z,27.60
2018-07-27T22:00:08.350Z,27.50
2018-07-27T22:05:12.418Z,27.40
2018-07-27T22:10:16.616Z,27.30
2018-07-27T22:15:23.539Z,27.30
2018-07-27T22:20:27.195Z,27.20
2018-07-27T22:25:31.041Z,27.10
2018-07-27T22:30:34.830Z,27.00
2018-07-27T22:35:38.545Z,27.00
2018-07-27T22:40:42.403Z,26.90
2018-07-27T22:45:46.380Z,26.80
2018-07-27T22:50:51.300Z,26.70
2018-07-27T22:55:55.127Z,26.60
2018-07-27T23:00:58.843Z,26.60
2018-07-27T23:06:02.720Z,26.60
2018-07-27T23:11:26.616Z,26.50
2018-07-27T23:16:30.463Z,26.40
2018-07-27T23:21:34.751Z,26.40
2018-07-27T23:26:38.703Z,26.30
2018-07-27T23:31:42.674Z,26.30
